• Join FlightAware (Why Join?)
  • Login
  • US Flag 
10:46PM EDT


 

Airport Tracker/Info


-or-


 

Live Flight TrackerFlight Track Log ✈ N761P ✈ 29-May-2013 ✈ KGAS - KBKL

Flight Track Log - Related Links

Times and Time Zones

All times are in EDT time to prevent confusion due to time zone crossing. See the N761P flight status page for this flight to view local times or setup timezone preferences in your user account.

Time Position Orientation Groundspeed Altitude Reporting Facility
EDT Latitude Longitude Course Direction KTS MPH feet Rate Location/Type
03:39AM 38.8133 -82.3231 North 164 189 4,000  Level Indianapolis Center
03:40AM 38.8583 -82.3125 10° North 164 189 4,200 240 Climbing Indianapolis Center
03:41AM 38.9044 -82.3000 12° North 167 192 4,500 120 Climbing Indianapolis Center
03:42AM 38.9500 -82.2897 10° North 166 191 4,500  Level Indianapolis Center
03:43AM 38.9958 -82.2778 11° North 168 193 4,500  Level Indianapolis Center
03:44AM 39.0419 -82.2667 11° North 168 193 4,500  Level Indianapolis Center
03:45AM 39.0902 -82.1192 North  Level Estimated
03:45AM 39.0872 -82.2553 11° North 167 192 4,500  Level Indianapolis Center
03:46AM 39.1325 -82.2431 12° North 167 192 4,500 -60 Level Indianapolis Center
03:47AM 39.1792 -82.2317 11° North 170 196 4,400 -60 Descending Indianapolis Center
03:48AM 39.2269 -82.2186 12° North 173 199 4,400  Level Indianapolis Center
03:49AM 39.2736 -82.2081 10° North 171 197 4,400  Level Indianapolis Center
03:50AM 39.3200 -82.1964 11° North 171 197 4,400  Level Indianapolis Center
03:51AM 39.3672 -82.1844 11° North 172 198 4,400  Level Indianapolis Center
03:52AM 39.4133 -82.1731 11° North 170 196 4,400  Level Indianapolis Center
03:53AM 39.4642 -82.1597 11° North 172 198 4,400  Level Indianapolis Center
03:54AM 39.5108 -82.1483 11° North 169 194 4,400  Level Indianapolis Center
03:55AM 39.5572 -82.1369 11° North 169 194 4,400  Level Indianapolis Center
03:56AM 39.6006 -82.1253 12° North 171 197 4,500  Climbing Indianapolis Center
03:57AM 39.6478 -82.1114 13° North 173 199 4,500  Level Indianapolis Center
03:58AM 39.6956 -82.1006 10° North 174 200 4,500 -60 Level Indianapolis Center
03:59AM 39.7389 -82.0894 11° North 170 196 4,400 -60 Descending Indianapolis Center
04:01AM 39.7861 -82.0778 11° North 172 198 4,400  Level Indianapolis Center
04:02AM 39.8325 -82.0650 12° North 169 194 4,400  Level Indianapolis Center
04:03AM 39.8803 -82.0533 11° North 172 198 4,400  Level Indianapolis Center
04:04AM 39.9256 -82.0406 12° North 168 193 4,400  Level Indianapolis Center
04:05AM 39.9725 -82.0292 11° North 170 196 4,400  Level Indianapolis Center
04:06AM 40.0189 -82.0172 11° North 169 194 4,400  Level Indianapolis Center
04:07AM 40.0664 -82.0036 12° North 172 198 4,400  Level Indianapolis Center
04:08AM 40.1147 -81.9933 North 176 203 4,400  Level Indianapolis Center
04:09AM 40.1622 -81.9808 11° North 175 201 4,400  Level Indianapolis Center
04:10AM 40.2094 -81.9681 12° North 172 198 4,400  Level Indianapolis Center
04:11AM 40.2553 -81.9567 11° North 174 200 4,400  Level Indianapolis Center
04:12AM 40.3033 -81.9442 11° North 173 199 4,400  Level Indianapolis Center
04:13AM 40.3500 -81.9325 11° North 172 198 4,400  Level Indianapolis Center
04:14AM 40.3972 -81.9197 12° North 171 197 4,400  Level Indianapolis Center
04:15AM 40.4439 -81.9064 12° North 172 198 4,400  Level Indianapolis Center
04:16AM 40.4900 -81.8942 11° North 170 196 4,400  Level Indianapolis Center
04:17AM 40.5381 -81.8814 11° North 173 199 4,400  Level Indianapolis Center
04:18AM 40.5850 -81.8686 12° North 172 198 4,400  Level Indianapolis Center
04:19AM 40.6319 -81.8564 11° North 171 197 4,400  Level Indianapolis Center
04:19AM 40.6625 -81.8478 12° North 162 186 4,400  Level Cleveland Center
04:20AM 40.7044 -81.8375 11° North 162 186 4,400  Level Cleveland Center
04:21AM 40.7503 -81.8247 12° North 162 186 4,400  Level Cleveland Center
04:22AM 40.7964 -81.8119 12° North 162 186 4,400 -60 Level Cleveland Center
04:23AM 40.8319 -81.8069 North 168 193 4,300  Descending Cleveland Center
04:23AM 40.8425 -81.7989 30° Northeast 162 186 4,400  Climbing Cleveland Center
04:24AM 40.8800 -81.7914 North 170 196 4,300  Descending Cleveland Center
04:25AM 40.9261 -81.7758 14° North 181 208 4,500  Climbing Cleveland Center
04:26AM 40.9719 -81.7683 North 176 203 4,300 -300 Descending Cleveland Center
04:27AM 41.0181 -81.7556 12° North 167 192 4,000 -300 Descending Cleveland Center
04:28AM 41.0703 -81.7425 11° North 177 204 3,700 -300 Descending Cleveland Center
04:29AM 41.1183 -81.7325 North 174 200 3,400 -300 Descending Cleveland Center
04:30AM 41.1664 -81.7139 16° North 176 203 3,200 -300 Descending Cleveland Center
04:31AM 41.2122 -81.7039 North 175 201 2,900 -300 Descending Cleveland Center
04:32AM 41.2625 -81.6936 North 177 204 2,700 -240 Descending Cleveland Center
04:33AM 41.3106 -81.6778 14° North 181 208 2,500 -120 Descending Cleveland Center
04:34AM 41.3628 -81.6647 11° North 177 204 2,500  Level Cleveland Center
04:35AM 41.4089 -81.6461 17° North 175 201 2,500  Level Cleveland Center
04:36AM 41.4486 -81.6358 11° North 133 153 2,500  Level Cleveland Center
04:38AM 41.5050 -81.6747 13° North  Level Estimated
04:45AM 41.5167 -81.6667 13° North  Level FlightAware Approximate
04:46AM 41.5175 -81.6833 13° North  Level Estimated
04:47AM 41.5175 -81.6833 13° North  Level Estimated
04:48AM 41.5175 -81.6833 13° North  Level Estimated